Airfield :
LOGIN :

Register | Disclaimer

   EN    FR    IT 

 










Legend :    VFR   Marginal VFR   IFR   Intensive IFR   Very Intensive IFR
Visi :
Ceiling :
>= 8 km
>= 3000ft
5 to 8 km
1000 to 3000 ft
1500m to 5 km
500 to 1000 ft
800 to 1500m
200 to 500 ft
< 800m
< 200 ft
Symbols :   Thunderstorms  Fog  Heavy snow  Heavy precipitations  Wind > 20 kt
SIGMETs :     Misc.  Thunderstorms  Icing  Turbulence  Mountain Waves  Volcanic Ashes







- Airport Elevation : 479 ft
- IATA code : DOL
- Download approach charts


LFRG - Deauville

CURRENT METAR :
  • 152030Z AUTO 32004KT CAVOK 16/14 Q1016

EXPIRED METARs :
  • 152000Z AUTO 32003KT CAVOK 17/13 Q1016 NOSIG
  • 151930Z AUTO VRB03KT CAVOK 18/14 Q1016 NOSIG
  • 151900Z AUTO 33004KT 300V360 CAVOK 19/14 Q1016 NOSIG
  • 151830Z AUTO 33004KT 300V010 CAVOK 20/13 Q1015 NOSIG
  • 151800Z AUTO 35005KT 310V030 CAVOK 20/12 Q1015 NOSIG

TAF TAF LFRG
Valid from the 15 at 15:00 until the 16 at 00:00 UTC


151400Z 1515/1524 33010KT CAVOK
BECMG 1519/1521 VRB03KT
ATIS : +33 2 31 65 65 36
No reported NOTAMs for that airfield.



MET'MAP, your aeronautical weather chart ! - Copyright ORBIFLY December 2007 - Disclaimer

ORBIFLY MET'MAP TEAM :

Programming & Development : Alexandra Zaïnal
Concept & Development : Baudouin d'Aumeries
Co-Development & Prog : Marc-Olivier Méhu
Technical & hardware support : Manuel Goepfert

Contact : metmap@orbifly.com




SOURCES & CREDITS :

   NOAA